createdAt,value
2023-03-05T00:00:31.747Z,50.40
2023-03-05T00:02:58.257Z,50.40
2023-03-05T00:05:24.808Z,50.50
2023-03-05T00:07:51.288Z,50.50
2023-03-05T00:10:17.754Z,50.40
2023-03-05T00:12:44.265Z,50.50
2023-03-05T00:15:10.728Z,50.40
2023-03-05T00:17:37.205Z,50.40
2023-03-05T00:20:03.694Z,50.40
2023-03-05T00:22:30.157Z,50.40
2023-03-05T00:24:56.631Z,50.40
2023-03-05T00:27:23.093Z,50.30
2023-03-05T00:29:49.567Z,50.40
2023-03-05T00:32:16.089Z,50.30
2023-03-05T00:34:42.563Z,50.30
2023-03-05T00:37:09.046Z,50.30
2023-03-05T00:39:35.513Z,50.40
2023-03-05T00:42:01.984Z,50.30
2023-03-05T00:44:28.470Z,50.40
2023-03-05T00:46:55.012Z,50.40
2023-03-05T00:49:21.560Z,50.40
2023-03-05T00:51:48.029Z,50.40
2023-03-05T00:54:14.522Z,50.40
2023-03-05T00:56:41.011Z,50.40
2023-03-05T00:59:07.513Z,50.40
2023-03-05T01:01:33.994Z,50.40
2023-03-05T01:04:00.461Z,50.30
2023-03-05T01:06:26.946Z,50.40
2023-03-05T01:08:53.406Z,50.40
2023-03-05T01:11:19.887Z,50.40
2023-03-05T01:13:46.347Z,50.50
2023-03-05T01:19:03.245Z,50.50
2023-03-05T01:21:29.780Z,50.40
2023-03-05T01:23:56.233Z,50.30
2023-03-05T01:26:22.687Z,50.50
2023-03-05T01:28:49.164Z,50.50
2023-03-05T01:31:15.708Z,50.50
2023-03-05T01:33:42.192Z,50.50
2023-03-05T01:36:08.659Z,50.50
2023-03-05T01:38:35.136Z,50.50
2023-03-05T01:41:01.635Z,50.50
2023-03-05T01:43:28.109Z,50.60
2023-03-05T01:45:54.657Z,50.50
2023-03-05T01:48:21.175Z,50.60
2023-03-05T01:50:47.670Z,50.60
2023-03-05T01:53:14.145Z,50.60
2023-03-05T01:55:46.519Z,50.60
2023-03-05T01:58:13.009Z,50.60
2023-03-05T02:00:39.515Z,50.60
2023-03-05T02:03:05.985Z,50.60
2023-03-05T02:05:32.505Z,50.60
2023-03-05T02:07:58.988Z,50.60
2023-03-05T02:10:25.487Z,50.60
2023-03-05T02:12:51.955Z,50.60
2023-03-05T02:15:18.493Z,50.50
2023-03-05T02:17:44.985Z,50.60
2023-03-05T02:20:11.495Z,50.60
2023-03-05T02:22:37.981Z,50.50
2023-03-05T02:25:04.452Z,50.70
2023-03-05T02:27:30.930Z,50.60
2023-03-05T02:29:57.410Z,50.60
2023-03-05T02:32:23.949Z,50.60
2023-03-05T02:34:50.416Z,50.60
2023-03-05T02:37:16.908Z,50.70
2023-03-05T02:39:43.368Z,50.70
2023-03-05T02:42:09.842Z,50.70
2023-03-05T02:44:36.322Z,50.70
2023-03-05T02:47:02.795Z,50.70
2023-03-05T02:49:29.277Z,50.70
2023-03-05T02:51:55.748Z,50.70
2023-03-05T02:54:22.230Z,50.70
2023-03-05T02:56:48.739Z,50.70
2023-03-05T02:59:15.237Z,50.70
2023-03-05T03:01:41.727Z,50.60
2023-03-05T03:04:08.242Z,50.70
2023-03-05T03:06:34.716Z,50.70
2023-03-05T03:09:01.192Z,50.60
2023-03-05T03:11:27.662Z,50.70
2023-03-05T03:13:54.134Z,50.70
2023-03-05T03:16:20.649Z,50.60
2023-03-05T03:18:47.110Z,50.70
2023-03-05T03:21:16.602Z,50.70
2023-03-05T03:23:43.071Z,50.70
2023-03-05T03:26:09.565Z,50.70
2023-03-05T03:28:36.025Z,50.60
2023-03-05T03:31:02.550Z,50.70
2023-03-05T03:33:29.036Z,50.70
2023-03-05T03:35:55.566Z,50.70
2023-03-05T03:38:22.054Z,50.70
2023-03-05T03:40:48.534Z,50.70
2023-03-05T03:43:15.003Z,50.70
2023-03-05T03:45:41.519Z,50.70
2023-03-05T03:48:07.981Z,50.80
2023-03-05T03:50:34.474Z,50.70
2023-03-05T03:53:00.956Z,50.70
2023-03-05T03:55:27.423Z,50.70
2023-03-05T03:57:53.927Z,50.80
2023-03-05T04:00:20.406Z,50.80
2023-03-05T04:02:46.962Z,50.80
2023-03-05T04:05:16.727Z,50.70
2023-03-05T04:07:43.217Z,50.80
2023-03-05T04:10:09.672Z,50.70
2023-03-05T04:12:36.141Z,50.70
2023-03-05T04:15:02.620Z,50.80
2023-03-05T04:17:29.131Z,50.80
2023-03-05T04:19:55.609Z,50.80
2023-03-05T04:22:22.077Z,50.80
2023-03-05T04:24:48.555Z,50.80
2023-03-05T04:27:15.026Z,50.80
2023-03-05T04:29:41.512Z,50.80
2023-03-05T04:32:08.033Z,50.80
2023-03-05T04:34:34.546Z,50.70
2023-03-05T04:37:01.053Z,50.80
2023-03-05T04:39:27.540Z,50.80
2023-03-05T04:41:54.024Z,50.80
2023-03-05T04:44:20.497Z,50.80
2023-03-05T04:46:47.004Z,50.90
2023-03-05T04:49:13.488Z,50.90
2023-03-05T04:51:39.944Z,50.80
2023-03-05T04:54:06.411Z,50.70
2023-03-05T04:56:32.896Z,50.90
2023-03-05T04:58:59.361Z,50.90
2023-03-05T05:01:25.915Z,50.90
2023-03-05T05:03:52.468Z,50.80
2023-03-05T05:06:18.952Z,51.00
2023-03-05T05:08:45.416Z,50.90
2023-03-05T05:11:16.671Z,50.90
2023-03-05T05:13:43.120Z,50.90
2023-03-05T05:16:09.666Z,50.80
2023-03-05T05:18:40.867Z,50.90
2023-03-05T05:21:07.395Z,50.90
2023-03-05T05:23:33.909Z,50.70
2023-03-05T05:26:00.377Z,50.90
2023-03-05T05:28:26.871Z,50.90
2023-03-05T05:30:53.346Z,50.90
2023-03-05T05:33:19.823Z,50.90
2023-03-05T05:35:46.345Z,50.90
2023-03-05T05:38:12.862Z,50.90
2023-03-05T05:40:39.331Z,50.90
2023-03-05T05:43:05.846Z,50.90
2023-03-05T05:45:32.443Z,50.90
2023-03-05T05:47:59.023Z,50.90
2023-03-05T05:50:25.495Z,50.90
2023-03-05T05:52:51.975Z,50.90
2023-03-05T05:55:18.466Z,50.80
2023-03-05T05:57:44.947Z,50.90
2023-03-05T06:00:11.419Z,50.90
2023-03-05T06:02:38.033Z,50.90
2023-03-05T06:05:04.537Z,50.90
2023-03-05T06:07:31.005Z,50.90
2023-03-05T06:09:57.457Z,50.80
2023-03-05T06:12:23.939Z,51.00
2023-03-05T06:14:50.412Z,51.00
2023-03-05T06:17:25.059Z,51.00
2023-03-05T06:19:56.526Z,51.00
2023-03-05T06:22:22.996Z,51.00
2023-03-05T06:24:49.484Z,50.90
2023-03-05T06:27:15.972Z,51.00
2023-03-05T06:29:42.452Z,51.00
2023-03-05T06:32:10.792Z,51.00
2023-03-05T06:34:37.274Z,51.00
2023-03-05T06:37:03.762Z,51.00
2023-03-05T06:39:30.225Z,50.90
2023-03-05T06:41:56.721Z,51.00
2023-03-05T06:44:23.201Z,51.00
2023-03-05T06:46:49.682Z,51.00
2023-03-05T06:49:16.168Z,51.00
2023-03-05T06:51:42.650Z,51.00
2023-03-05T06:54:09.118Z,51.00
2023-03-05T06:56:35.615Z,51.00
2023-03-05T06:59:02.101Z,51.00
2023-03-05T07:01:28.595Z,51.00
2023-03-05T07:03:58.787Z,51.00
2023-03-05T07:06:25.258Z,51.10
2023-03-05T07:08:51.751Z,51.00
2023-03-05T07:11:18.251Z,51.10
2023-03-05T07:13:44.732Z,51.00
2023-03-05T07:16:11.234Z,51.10
2023-03-05T07:18:37.769Z,51.10
2023-03-05T07:21:04.244Z,51.10
2023-03-05T07:23:30.728Z,51.10
2023-03-05T07:25:57.205Z,51.10
2023-03-05T07:28:23.682Z,51.10
2023-03-05T07:30:50.165Z,51.10
2023-03-05T07:33:16.636Z,51.10
2023-03-05T07:35:43.165Z,51.20
2023-03-05T07:38:09.675Z,51.20
2023-03-05T07:40:36.134Z,51.20
2023-03-05T07:43:02.618Z,51.20
2023-03-05T07:45:29.092Z,51.20
2023-03-05T07:47:55.567Z,51.20
2023-03-05T07:50:22.050Z,51.20
2023-03-05T07:52:48.530Z,51.30
2023-03-05T07:55:15.010Z,51.30
2023-03-05T07:57:41.497Z,51.20
2023-03-05T08:00:07.990Z,51.30
2023-03-05T08:02:34.531Z,51.30
2023-03-05T08:05:01.048Z,51.30
2023-03-05T08:07:27.543Z,51.30
2023-03-05T08:09:58.845Z,51.30
2023-03-05T08:12:25.335Z,51.40
2023-03-05T08:14:51.832Z,51.40
2023-03-05T08:17:18.315Z,51.40
2023-03-05T08:19:44.800Z,51.40
2023-03-05T08:22:11.290Z,51.40
2023-03-05T08:24:40.828Z,51.40
2023-03-05T08:27:10.960Z,51.40
2023-03-05T08:29:37.433Z,51.30
2023-03-05T08:32:04.881Z,51.40
2023-03-05T08:34:31.366Z,51.50
2023-03-05T08:36:57.821Z,51.50
2023-03-05T08:39:24.291Z,51.40
2023-03-05T08:41:50.765Z,51.30
2023-03-05T08:44:17.228Z,51.50
2023-03-05T08:46:43.736Z,51.50
2023-03-05T08:49:10.264Z,51.50
2023-03-05T08:51:36.734Z,51.50
2023-03-05T08:54:03.354Z,51.60
2023-03-05T08:56:29.863Z,51.50
2023-03-05T08:58:56.339Z,51.50
2023-03-05T09:01:22.892Z,51.60
2023-03-05T09:03:49.438Z,51.70
2023-03-05T09:06:15.913Z,51.60
2023-03-05T09:08:42.385Z,51.60
2023-03-05T09:11:08.862Z,51.60
2023-03-05T09:13:35.350Z,51.70
2023-03-05T09:16:01.910Z,51.60
2023-03-05T09:18:28.405Z,51.70
2023-03-05T09:20:54.883Z,51.60
2023-03-05T09:23:21.355Z,51.80
2023-03-05T09:25:47.822Z,51.70
2023-03-05T09:28:14.302Z,51.70
2023-03-05T09:30:40.882Z,51.70
2023-03-05T09:33:07.349Z,51.80
2023-03-05T09:35:33.895Z,51.80
2023-03-05T09:38:00.372Z,51.60
2023-03-05T09:40:26.854Z,51.80
2023-03-05T09:42:53.328Z,51.80
2023-03-05T09:45:19.814Z,51.80
2023-03-05T09:47:46.272Z,51.90
2023-03-05T09:50:12.766Z,51.80
2023-03-05T09:52:39.240Z,51.80
2023-03-05T09:55:05.716Z,51.90
2023-03-05T09:57:32.190Z,51.90
2023-03-05T09:59:58.684Z,51.90
2023-03-05T10:02:25.154Z,51.90
2023-03-05T10:04:51.636Z,52.00
2023-03-05T10:07:18.110Z,52.00
2023-03-05T10:09:44.608Z,51.90
2023-03-05T10:12:11.093Z,51.80
2023-03-05T10:14:37.574Z,52.00
2023-03-05T10:17:04.958Z,52.00
2023-03-05T10:19:31.442Z,52.10
2023-03-05T10:21:58.964Z,52.10
2023-03-05T10:24:25.449Z,51.90
2023-03-05T10:26:53.002Z,52.10
2023-03-05T10:29:19.482Z,52.10
2023-03-05T10:31:46.048Z,52.10
2023-03-05T10:34:12.595Z,52.10
2023-03-05T10:36:39.068Z,52.10
2023-03-05T10:39:05.533Z,52.10
2023-03-05T10:41:31.998Z,52.20
2023-03-05T10:43:58.463Z,52.20
2023-03-05T10:46:24.944Z,52.20
2023-03-05T10:48:51.418Z,52.20
2023-03-05T10:51:17.903Z,52.20
2023-03-05T10:53:44.387Z,52.20
2023-03-05T10:56:10.851Z,52.10
2023-03-05T10:58:37.323Z,52.20
2023-03-05T11:01:03.833Z,52.20
2023-03-05T11:03:30.300Z,52.20
2023-03-05T11:05:56.762Z,52.20
2023-03-05T11:08:23.245Z,52.20
2023-03-05T11:10:49.743Z,52.30
2023-03-05T11:13:16.212Z,52.20
2023-03-05T11:15:42.691Z,52.30
2023-03-05T11:18:09.195Z,52.10
2023-03-05T11:20:35.708Z,52.30
2023-03-05T11:23:02.183Z,52.30
2023-03-05T11:25:28.657Z,52.30
2023-03-05T11:27:55.133Z,52.30
2023-03-05T11:30:21.611Z,52.30
2023-03-05T11:32:48.067Z,52.30
2023-03-05T11:35:14.566Z,52.30
2023-03-05T11:37:41.041Z,52.40
2023-03-05T11:40:07.503Z,52.30
2023-03-05T11:42:33.978Z,52.40
2023-03-05T11:45:00.463Z,52.40
2023-03-05T11:47:26.942Z,52.40
2023-03-05T11:49:53.392Z,52.40
2023-03-05T11:52:19.859Z,52.40
2023-03-05T11:54:46.332Z,52.30
2023-03-05T11:57:12.836Z,52.30
2023-03-05T11:59:39.289Z,52.30
2023-03-05T12:02:05.763Z,52.30
2023-03-05T12:04:32.252Z,52.40
2023-03-05T12:06:58.720Z,52.40
2023-03-05T12:09:25.188Z,52.30
2023-03-05T12:11:51.662Z,52.30
2023-03-05T12:14:18.134Z,52.40
2023-03-05T12:16:45.196Z,52.40
2023-03-05T12:19:11.729Z,52.30
2023-03-05T12:21:38.215Z,52.40
2023-03-05T12:24:04.692Z,52.40
2023-03-05T12:26:31.169Z,52.40
2023-03-05T12:28:57.655Z,52.40
2023-03-05T12:31:24.174Z,52.40
2023-03-05T12:33:50.680Z,52.40
2023-03-05T12:36:17.177Z,52.40
2023-03-05T12:38:47.153Z,52.40
2023-03-05T12:41:13.645Z,52.50
2023-03-05T12:43:40.124Z,52.40
2023-03-05T12:46:06.610Z,52.30
2023-03-05T12:48:33.145Z,52.00
2023-03-05T12:50:59.692Z,51.70
2023-03-05T12:53:26.165Z,51.60
2023-03-05T12:55:52.645Z,51.30
2023-03-05T12:58:19.119Z,51.10
2023-03-05T13:00:45.619Z,50.90
2023-03-05T13:03:12.102Z,50.60
2023-03-05T13:05:38.575Z,50.40
2023-03-05T13:08:05.052Z,50.10
2023-03-05T13:10:31.571Z,49.90
2023-03-05T13:12:58.044Z,50.10
2023-03-05T13:15:24.530Z,50.30
2023-03-05T13:17:51.010Z,50.60
2023-03-05T13:20:17.503Z,50.80
2023-03-05T13:22:43.972Z,51.10
2023-03-05T13:25:10.441Z,51.30
2023-03-05T13:27:36.921Z,51.50
2023-03-05T13:30:03.391Z,51.50
2023-03-05T13:32:29.903Z,51.40
2023-03-05T13:34:56.411Z,51.10
2023-03-05T13:37:22.908Z,50.90
2023-03-05T13:39:49.388Z,50.80
2023-03-05T13:42:15.884Z,50.40
2023-03-05T13:44:42.349Z,50.30
2023-03-05T13:47:08.839Z,50.20
2023-03-05T13:49:35.488Z,50.40
2023-03-05T13:52:01.955Z,50.50
2023-03-05T13:54:28.452Z,50.80
2023-03-05T13:56:56.057Z,50.80
2023-03-05T13:59:22.576Z,51.10
2023-03-05T14:01:49.057Z,51.20
2023-03-05T14:04:15.696Z,51.60
2023-03-05T14:06:42.191Z,51.60
2023-03-05T14:09:08.656Z,51.50
2023-03-05T14:11:35.126Z,51.10
2023-03-05T14:14:01.604Z,51.00
2023-03-05T14:16:28.180Z,50.80
2023-03-05T14:18:54.704Z,50.50
2023-03-05T14:21:21.179Z,50.40
2023-03-05T14:23:47.693Z,50.40
2023-03-05T14:26:14.195Z,50.60
2023-03-05T14:28:40.660Z,50.80
2023-03-05T14:31:07.186Z,51.00
2023-03-05T14:33:33.716Z,51.10
2023-03-05T14:36:00.285Z,51.20
2023-03-05T14:38:26.930Z,51.30
2023-03-05T14:40:53.414Z,51.40
2023-03-05T14:43:19.891Z,51.20
2023-03-05T14:45:46.373Z,51.00
2023-03-05T14:48:12.855Z,50.90
2023-03-05T14:50:39.335Z,50.60
2023-03-05T14:53:05.821Z,50.20
2023-03-05T14:55:32.300Z,50.00
2023-03-05T14:57:58.792Z,50.00
2023-03-05T15:00:25.295Z,50.20
2023-03-05T15:02:51.870Z,50.30
2023-03-05T15:05:18.414Z,50.40
2023-03-05T15:07:44.905Z,50.50
2023-03-05T15:10:11.400Z,50.70
2023-03-05T15:12:37.888Z,50.80
2023-03-05T15:15:04.356Z,50.90
2023-03-05T15:17:30.885Z,51.10
2023-03-05T15:19:59.155Z,51.00
2023-03-05T15:22:25.642Z,50.80
2023-03-05T15:24:52.109Z,50.60
2023-03-05T15:27:18.593Z,50.30
2023-03-05T15:29:45.068Z,50.00
2023-03-05T15:32:11.616Z,49.70
2023-03-05T15:34:38.095Z,49.70
2023-03-05T15:37:04.588Z,49.50
2023-03-05T15:39:35.181Z,49.40
2023-03-05T15:42:01.662Z,49.30
2023-03-05T15:44:29.210Z,49.40
2023-03-05T15:46:55.693Z,49.70
2023-03-05T15:49:22.184Z,50.00
2023-03-05T15:51:48.653Z,50.20
2023-03-05T15:54:15.138Z,50.40
2023-03-05T15:56:41.636Z,50.50
2023-03-05T15:59:08.112Z,50.70
2023-03-05T16:01:34.632Z,50.70
2023-03-05T16:04:01.127Z,50.60
2023-03-05T16:06:27.609Z,50.70
2023-03-05T16:08:59.213Z,50.60
2023-03-05T16:11:25.675Z,50.30
2023-03-05T16:13:52.224Z,50.10
2023-03-05T16:16:18.692Z,49.80
2023-03-05T16:18:47.233Z,49.70
2023-03-05T16:21:13.713Z,49.80
2023-03-05T16:23:40.201Z,49.90
2023-03-05T16:26:06.690Z,50.00
2023-03-05T16:28:33.198Z,50.10
2023-03-05T16:30:59.689Z,50.30
2023-03-05T16:33:26.194Z,50.40
2023-03-05T16:35:52.710Z,50.50
2023-03-05T16:38:19.237Z,50.50
2023-03-05T16:41:06.873Z,50.60
2023-03-05T16:43:32.190Z,50.70
2023-03-05T16:45:58.666Z,50.70
2023-03-05T16:48:25.126Z,50.60
2023-03-05T16:50:51.641Z,50.40
2023-03-05T16:53:18.104Z,50.20
2023-03-05T16:55:44.587Z,50.00
2023-03-05T16:58:11.063Z,49.60
2023-03-05T17:00:37.581Z,49.30
2023-03-05T17:03:04.086Z,49.20
2023-03-05T17:05:30.576Z,49.10
2023-03-05T17:07:57.057Z,49.20
2023-03-05T17:10:23.521Z,49.40
2023-03-05T17:12:50.008Z,49.60
2023-03-05T17:15:16.490Z,49.70
2023-03-05T17:17:42.984Z,49.90
2023-03-05T17:20:09.438Z,50.00
2023-03-05T17:22:35.895Z,50.10
2023-03-05T17:25:02.381Z,50.10
2023-03-05T17:27:28.865Z,50.30
2023-03-05T17:29:59.285Z,50.30
2023-03-05T17:32:25.769Z,50.50
2023-03-05T17:34:52.292Z,50.50
2023-03-05T17:37:18.762Z,50.40
2023-03-05T17:39:45.237Z,50.30
2023-03-05T17:42:11.707Z,50.00
2023-03-05T17:44:38.173Z,49.60
2023-03-05T17:47:04.651Z,49.50
2023-03-05T17:49:31.164Z,49.50
2023-03-05T17:51:57.644Z,49.50
2023-03-05T17:54:24.142Z,49.60
2023-03-05T17:56:50.624Z,49.80
2023-03-05T17:59:17.114Z,49.90
2023-03-05T18:01:43.583Z,50.00
2023-03-05T18:04:10.152Z,50.10
2023-03-05T18:06:36.661Z,50.30
2023-03-05T18:09:03.129Z,50.30
2023-03-05T18:11:35.316Z,50.40
2023-03-05T18:14:01.795Z,50.50
2023-03-05T18:16:28.291Z,50.50
2023-03-05T18:18:54.780Z,50.40
2023-03-05T18:21:21.281Z,50.00
2023-03-05T18:23:47.770Z,50.10
2023-03-05T18:26:14.246Z,50.10
2023-03-05T18:28:40.720Z,50.20
2023-03-05T18:31:07.300Z,50.20
2023-03-05T18:33:33.807Z,50.30
2023-03-05T18:36:00.293Z,50.40
2023-03-05T18:38:26.760Z,50.40
2023-03-05T18:40:53.256Z,50.60
2023-03-05T18:43:19.744Z,50.60
2023-03-05T18:45:46.247Z,50.60
2023-03-05T18:48:12.728Z,50.70
2023-03-05T18:50:39.202Z,50.70
2023-03-05T18:53:05.667Z,50.80
2023-03-05T18:55:32.137Z,50.80
2023-03-05T18:57:59.321Z,50.80
2023-03-05T19:00:25.847Z,50.90
2023-03-05T19:02:52.336Z,50.80
2023-03-05T19:05:18.849Z,50.80
2023-03-05T19:07:45.353Z,51.00
2023-03-05T19:10:11.881Z,51.00
2023-03-05T19:12:38.374Z,51.00
2023-03-05T19:15:04.878Z,51.00
2023-03-05T19:17:31.364Z,51.00
2023-03-05T19:19:57.819Z,51.00
2023-03-05T19:22:24.289Z,51.00
2023-03-05T19:24:50.782Z,51.00
2023-03-05T19:27:17.261Z,51.00
2023-03-05T19:29:43.741Z,51.00
2023-03-05T19:32:10.238Z,51.00
2023-03-05T19:34:36.757Z,51.00
2023-03-05T19:37:03.260Z,51.00
2023-03-05T19:39:29.743Z,50.80
2023-03-05T19:41:59.391Z,51.00
2023-03-05T19:44:25.874Z,50.90
2023-03-05T19:46:52.364Z,51.10
2023-03-05T19:49:18.834Z,50.90
2023-03-05T19:51:45.315Z,51.00
2023-03-05T19:54:11.777Z,51.00
2023-03-05T19:56:41.425Z,51.10
2023-03-05T19:59:07.892Z,51.00
2023-03-05T20:01:34.394Z,51.00
2023-03-05T20:04:00.914Z,51.00
2023-03-05T20:06:27.405Z,51.10
2023-03-05T20:08:53.866Z,51.00
2023-03-05T20:11:20.349Z,51.10
2023-03-05T20:13:46.924Z,51.10
2023-03-05T20:16:13.456Z,51.00
2023-03-05T20:18:39.953Z,51.00
2023-03-05T20:21:06.442Z,51.10
2023-03-05T20:23:32.925Z,51.00
2023-03-05T20:25:59.401Z,51.00
2023-03-05T20:28:25.892Z,51.10
2023-03-05T20:30:52.375Z,51.10
2023-03-05T20:33:18.852Z,51.10
2023-03-05T20:35:45.357Z,51.10
2023-03-05T20:38:13.186Z,51.10
2023-03-05T20:40:39.688Z,51.10
2023-03-05T20:43:06.145Z,51.10
2023-03-05T20:45:32.653Z,51.10
2023-03-05T20:47:59.129Z,51.10
2023-03-05T20:50:25.612Z,50.90
2023-03-05T20:52:52.076Z,51.10
2023-03-05T20:55:18.567Z,51.10
2023-03-05T20:57:45.039Z,51.10
2023-03-05T21:00:11.526Z,51.10
2023-03-05T21:02:38.011Z,51.10
2023-03-05T21:05:04.470Z,51.10
2023-03-05T21:07:30.937Z,50.90
2023-03-05T21:09:57.424Z,51.10
2023-03-05T21:12:23.917Z,51.10
2023-03-05T21:14:50.405Z,51.10
2023-03-05T21:17:16.885Z,51.00
2023-03-05T21:19:43.365Z,51.10
2023-03-05T21:22:09.846Z,51.10
2023-03-05T21:24:36.307Z,51.10
2023-03-05T21:27:02.785Z,51.10
2023-03-05T21:29:29.236Z,51.10
2023-03-05T21:31:55.926Z,51.10
2023-03-05T21:34:22.466Z,51.00
2023-03-05T21:36:48.950Z,51.20
2023-03-05T21:39:15.429Z,51.20
2023-03-05T21:41:41.927Z,51.10
2023-03-05T21:44:09.668Z,51.10
2023-03-05T21:46:37.142Z,51.00
2023-03-05T21:49:03.622Z,51.10
2023-03-05T21:51:30.086Z,51.10
2023-03-05T21:53:56.541Z,51.10
2023-03-05T21:56:23.486Z,51.10
2023-03-05T21:58:49.962Z,51.20
2023-03-05T22:01:16.499Z,51.10
2023-03-05T22:03:43.061Z,51.10
2023-03-05T22:06:09.667Z,51.10
2023-03-05T22:08:36.168Z,51.10
2023-03-05T22:11:02.668Z,51.10
2023-03-05T22:13:29.174Z,51.00
2023-03-05T22:15:55.661Z,51.10
2023-03-05T22:18:22.110Z,51.00
2023-03-05T22:20:48.585Z,51.10
2023-03-05T22:23:15.080Z,51.10
2023-03-05T22:25:41.580Z,51.10
2023-03-05T22:28:08.068Z,51.10
2023-03-05T22:30:34.612Z,51.10
2023-03-05T22:33:01.093Z,51.20
2023-03-05T22:35:27.632Z,51.20
2023-03-05T22:37:54.107Z,51.20
2023-03-05T22:40:20.582Z,51.10
2023-03-05T22:42:47.062Z,51.20
2023-03-05T22:45:13.539Z,51.20
2023-03-05T22:47:40.018Z,51.20
2023-03-05T22:50:06.495Z,51.20
2023-03-05T22:52:32.923Z,51.20
2023-03-05T22:54:59.420Z,51.30
2023-03-05T22:57:29.568Z,51.20
2023-03-05T22:59:56.039Z,51.20
2023-03-05T23:02:23.551Z,51.20
2023-03-05T23:04:50.037Z,51.20
2023-03-05T23:07:16.550Z,51.20
2023-03-05T23:09:43.018Z,51.20
2023-03-05T23:12:09.508Z,51.30
2023-03-05T23:14:35.989Z,51.20
2023-03-05T23:17:02.489Z,51.20
2023-03-05T23:19:28.962Z,51.20
2023-03-05T23:21:55.466Z,51.20
2023-03-05T23:24:21.925Z,51.20
2023-03-05T23:26:48.408Z,51.30
2023-03-05T23:29:14.904Z,51.30
2023-03-05T23:31:41.368Z,51.20
2023-03-05T23:34:07.881Z,51.20
2023-03-05T23:36:34.379Z,51.20
2023-03-05T23:39:00.858Z,51.30
2023-03-05T23:41:27.392Z,51.20
2023-03-05T23:43:53.876Z,51.20
2023-03-05T23:46:20.400Z,51.30
2023-03-05T23:48:46.888Z,51.30
2023-03-05T23:51:13.373Z,51.30
2023-03-05T23:53:39.860Z,51.30
2023-03-05T23:56:11.690Z,51.30
2023-03-05T23:58:41.621Z,51.30
